sensor_id;sensor_type;location;lat;lon;timestamp;P1;durP1;ratioP1;P2;durP2;ratioP2
71973;SDS011;59840;52.122;5.404;2022-09-03T14:59:38;2.95;;;2.58;;
71973;SDS011;59840;52.122;5.404;2022-09-03T15:13:09;2.63;;;2.10;;
71973;SDS011;59840;52.122;5.404;2022-09-03T15:20:53;4.30;;;2.60;;
71973;SDS011;59840;52.122;5.404;2022-09-03T15:36:08;3.53;;;3.23;;
71973;SDS011;59840;52.122;5.404;2022-09-03T15:38:47;3.40;;;3.10;;
71973;SDS011;59840;52.122;5.404;2022-09-03T15:41:24;3.53;;;3.17;;
71973;SDS011;59840;52.122;5.404;2022-09-03T15:43:59;4.13;;;3.47;;
71973;SDS011;59840;52.122;5.404;2022-09-03T15:57:30;3.90;;;3.60;;
71973;SDS011;59840;52.122;5.404;2022-09-03T16:05:17;7.15;;;4.55;;
71973;SDS011;59840;52.122;5.404;2022-09-03T16:07:48;4.15;;;3.95;;
71973;SDS011;59840;52.122;5.404;2022-09-03T16:10:34;4.53;;;4.22;;
71973;SDS011;59840;52.122;5.404;2022-09-03T16:13:10;4.78;;;4.43;;
71973;SDS011;59840;52.122;5.404;2022-09-03T16:16:01;4.53;;;4.23;;
71973;SDS011;59840;52.122;5.404;2022-09-03T16:18:35;4.93;;;4.63;;
71973;SDS011;59840;52.122;5.404;2022-09-03T16:24:32;3.97;;;3.75;;
71973;SDS011;59840;52.122;5.404;2022-09-03T16:29:57;4.40;;;4.20;;
71973;SDS011;59840;52.122;5.404;2022-09-03T16:37:56;4.30;;;4.10;;
71973;SDS011;59840;52.122;5.404;2022-09-03T16:46:13;5.03;;;4.25;;
71973;SDS011;59840;52.122;5.404;2022-09-03T16:51:40;4.30;;;3.90;;
71973;SDS011;59840;52.122;5.404;2022-09-03T16:57:27;3.70;;;3.50;;
71973;SDS011;59840;52.122;5.404;2022-09-03T17:05:45;3.45;;;3.22;;
71973;SDS011;59840;52.122;5.404;2022-09-03T17:08:18;3.28;;;3.03;;
71973;SDS011;59840;52.122;5.404;2022-09-03T17:10:50;2.80;;;2.70;;
71973;SDS011;59840;52.122;5.404;2022-09-03T17:23:59;2.50;;;2.30;;
71973;SDS011;59840;52.122;5.404;2022-09-03T17:31:52;4.13;;;2.65;;
71973;SDS011;59840;52.122;5.404;2022-09-03T17:40:02;2.75;;;2.33;;
71973;SDS011;59840;52.122;5.404;2022-09-03T17:48:19;3.13;;;1.83;;
71973;SDS011;59840;52.122;5.404;2022-09-03T17:50:51;2.57;;;2.13;;
71973;SDS011;59840;52.122;5.404;2022-09-03T17:53:24;3.38;;;2.40;;
71973;SDS011;59840;52.122;5.404;2022-09-03T17:56:00;3.35;;;2.40;;
71973;SDS011;59840;52.122;5.404;2022-09-03T17:58:40;5.78;;;3.00;;
71973;SDS011;59840;52.122;5.404;2022-09-03T18:01:16;4.05;;;3.60;;
71973;SDS011;59840;52.122;5.404;2022-09-03T18:03:53;5.50;;;2.90;;
71973;SDS011;59840;52.122;5.404;2022-09-03T18:06:25;3.95;;;3.58;;
71973;SDS011;59840;52.122;5.404;2022-09-03T18:09:05;4.05;;;3.45;;
71973;SDS011;59840;52.122;5.404;2022-09-03T18:11:49;6.82;;;2.72;;
71973;SDS011;59840;52.122;5.404;2022-09-03T18:14:25;2.88;;;2.47;;
71973;SDS011;59840;52.122;5.404;2022-09-03T18:17:12;6.93;;;2.70;;
71973;SDS011;59840;52.122;5.404;2022-09-03T18:19:53;3.15;;;2.90;;
71973;SDS011;59840;52.122;5.404;2022-09-03T18:22:49;3.83;;;2.83;;
71973;SDS011;59840;52.122;5.404;2022-09-03T18:25:41;2.80;;;2.60;;
71973;SDS011;59840;52.122;5.404;2022-09-03T18:28:34;2.88;;;2.67;;
71973;SDS011;59840;52.122;5.404;2022-09-03T18:31:41;3.77;;;2.87;;
71973;SDS011;59840;52.122;5.404;2022-09-03T18:34:29;3.17;;;2.88;;
71973;SDS011;59840;52.122;5.404;2022-09-03T18:37:17;3.67;;;3.42;;
71973;SDS011;59840;52.122;5.404;2022-09-03T18:40:06;3.90;;;2.92;;
71973;SDS011;59840;52.122;5.404;2022-09-03T18:46:04;3.03;;;2.80;;
71973;SDS011;59840;52.122;5.404;2022-09-03T18:58:45;2.25;;;2.13;;
71973;SDS011;59840;52.122;5.404;2022-09-03T19:01:41;2.53;;;2.20;;
71973;SDS011;59840;52.122;5.404;2022-09-03T19:10:27;3.65;;;2.90;;
71973;SDS011;59840;52.122;5.404;2022-09-03T19:22:25;4.57;;;2.70;;
71973;SDS011;59840;52.122;5.404;2022-09-03T19:25:16;4.40;;;2.65;;
71973;SDS011;59840;52.122;5.404;2022-09-03T19:28:12;4.95;;;2.80;;
71973;SDS011;59840;52.122;5.404;2022-09-03T19:37:20;3.67;;;3.05;;
71973;SDS011;59840;52.122;5.404;2022-09-03T19:43:49;6.30;;;4.18;;
71973;SDS011;59840;52.122;5.404;2022-09-03T19:52:43;5.80;;;3.40;;
71973;SDS011;59840;52.122;5.404;2022-09-03T19:55:30;5.05;;;3.15;;
71973;SDS011;59840;52.122;5.404;2022-09-03T19:58:21;4.15;;;3.33;;
71973;SDS011;59840;52.122;5.404;2022-09-03T20:01:10;6.33;;;3.70;;
71973;SDS011;59840;52.122;5.404;2022-09-03T20:03:58;4.57;;;3.38;;
71973;SDS011;59840;52.122;5.404;2022-09-03T20:06:45;11.13;;;3.60;;
71973;SDS011;59840;52.122;5.404;2022-09-03T20:09:35;4.30;;;2.70;;
71973;SDS011;59840;52.122;5.404;2022-09-03T20:12:25;4.60;;;2.75;;
71973;SDS011;59840;52.122;5.404;2022-09-03T20:14:57;5.87;;;3.00;;
71973;SDS011;59840;52.122;5.404;2022-09-03T20:17:50;3.20;;;3.00;;
71973;SDS011;59840;52.122;5.404;2022-09-03T20:20:31;4.22;;;2.90;;
71973;SDS011;59840;52.122;5.404;2022-09-03T20:23:12;5.35;;;3.13;;
71973;SDS011;59840;52.122;5.404;2022-09-03T20:31:41;5.10;;;3.00;;
71973;SDS011;59840;52.122;5.404;2022-09-03T20:42:22;4.00;;;3.70;;
71973;SDS011;59840;52.122;5.404;2022-09-03T20:47:51;3.72;;;3.20;;
71973;SDS011;59840;52.122;5.404;2022-09-03T20:50:29;6.45;;;3.58;;
71973;SDS011;59840;52.122;5.404;2022-09-03T20:53:30;9.82;;;4.47;;
71973;SDS011;59840;52.122;5.404;2022-09-03T20:58:59;3.78;;;3.45;;
71973;SDS011;59840;52.122;5.404;2022-09-03T21:01:50;5.20;;;3.53;;
71973;SDS011;59840;52.122;5.404;2022-09-03T21:18:13;7.72;;;3.70;;
71973;SDS011;59840;52.122;5.404;2022-09-03T21:21:05;5.30;;;3.60;;
71973;SDS011;59840;52.122;5.404;2022-09-03T21:23:43;3.90;;;3.60;;
71973;SDS011;59840;52.122;5.404;2022-09-03T21:26:22;4.30;;;3.90;;
71973;SDS011;59840;52.122;5.404;2022-09-03T21:28:58;8.38;;;4.10;;
71973;SDS011;59840;52.122;5.404;2022-09-03T21:31:33;6.63;;;3.97;;
71973;SDS011;59840;52.122;5.404;2022-09-03T21:34:19;8.40;;;3.83;;
71973;SDS011;59840;52.122;5.404;2022-09-03T21:36:50;5.27;;;3.80;;
71973;SDS011;59840;52.122;5.404;2022-09-03T21:39:23;4.15;;;3.85;;
71973;SDS011;59840;52.122;5.404;2022-09-03T21:41:59;5.20;;;3.83;;
71973;SDS011;59840;52.122;5.404;2022-09-03T21:47:14;5.15;;;4.07;;
71973;SDS011;59840;52.122;5.404;2022-09-03T21:52:18;6.80;;;4.30;;
71973;SDS011;59840;52.122;5.404;2022-09-03T21:54:50;4.82;;;4.40;;
71973;SDS011;59840;52.122;5.404;2022-09-03T21:57:33;4.60;;;4.20;;
71973;SDS011;59840;52.122;5.404;2022-09-03T22:00:13;4.18;;;3.92;;
71973;SDS011;59840;52.122;5.404;2022-09-03T22:02:45;5.87;;;4.30;;
71973;SDS011;59840;52.122;5.404;2022-09-03T22:05:13;5.72;;;4.25;;
71973;SDS011;59840;52.122;5.404;2022-09-03T22:07:51;6.20;;;4.20;;
71973;SDS011;59840;52.122;5.404;2022-09-03T22:10:38;8.32;;;4.07;;
71973;SDS011;59840;52.122;5.404;2022-09-03T22:16:31;5.23;;;4.80;;
71973;SDS011;59840;52.122;5.404;2022-09-03T22:19:03;5.10;;;4.70;;
71973;SDS011;59840;52.122;5.404;2022-09-03T22:21:50;4.88;;;4.38;;
71973;SDS011;59840;52.122;5.404;2022-09-03T22:24:34;4.63;;;4.30;;
71973;SDS011;59840;52.122;5.404;2022-09-03T22:38:25;5.22;;;4.75;;
71973;SDS011;59840;52.122;5.404;2022-09-03T22:41:09;6.43;;;4.85;;
71973;SDS011;59840;52.122;5.404;2022-09-03T22:43:41;5.20;;;4.23;;
71973;SDS011;59840;52.122;5.404;2022-09-03T22:46:18;7.38;;;4.60;;
71973;SDS011;59840;52.122;5.404;2022-09-03T22:51:47;5.03;;;4.38;;
71973;SDS011;59840;52.122;5.404;2022-09-03T22:54:25;5.80;;;4.45;;
71973;SDS011;59840;52.122;5.404;2022-09-03T22:57:02;4.37;;;4.07;;
71973;SDS011;59840;52.122;5.404;2022-09-03T22:59:34;6.95;;;4.90;;
71973;SDS011;59840;52.122;5.404;2022-09-03T23:02:10;4.75;;;4.43;;
71973;SDS011;59840;52.122;5.404;2022-09-03T23:05:26;5.22;;;4.82;;
71973;SDS011;59840;52.122;5.404;2022-09-03T23:07:57;5.32;;;4.82;;
71973;SDS011;59840;52.122;5.404;2022-09-03T23:13:19;4.88;;;4.50;;
71973;SDS011;59840;52.122;5.404;2022-09-03T23:15:51;13.25;;;6.32;;
71973;SDS011;59840;52.122;5.404;2022-09-03T23:18:25;6.80;;;5.13;;
71973;SDS011;59840;52.122;5.404;2022-09-03T23:21:04;6.55;;;4.68;;
71973;SDS011;59840;52.122;5.404;2022-09-03T23:23:39;5.63;;;5.13;;
71973;SDS011;59840;52.122;5.404;2022-09-03T23:26:15;5.50;;;4.88;;
71973;SDS011;59840;52.122;5.404;2022-09-03T23:28:53;5.22;;;4.72;;
71973;SDS011;59840;52.122;5.404;2022-09-03T23:31:27;6.45;;;5.07;;
71973;SDS011;59840;52.122;5.404;2022-09-03T23:33:54;6.05;;;5.47;;
71973;SDS011;59840;52.122;5.404;2022-09-03T23:42:39;7.22;;;5.15;;
71973;SDS011;59840;52.122;5.404;2022-09-03T23:45:17;6.20;;;5.70;;
71973;SDS011;59840;52.122;5.404;2022-09-03T23:48:12;5.78;;;5.28;;
71973;SDS011;59840;52.122;5.404;2022-09-03T23:50:59;6.43;;;5.17;;
71973;SDS011;59840;52.122;5.404;2022-09-03T23:56:38;5.53;;;5.13;;
